createdAt,value
2019-05-01T00:00:23.422Z,29.70
2019-05-01T00:03:02.632Z,26.90
2019-05-01T00:05:35.579Z,27.83
2019-05-01T00:08:04.580Z,25.13
2019-05-01T00:10:34.059Z,23.23
2019-05-01T00:13:02.781Z,24.53
2019-05-01T00:15:32.917Z,24.83
2019-05-01T00:18:01.375Z,27.07
2019-05-01T00:20:30.181Z,23.80
2019-05-01T00:22:58.686Z,26.30
2019-05-01T00:25:27.143Z,24.13
2019-05-01T00:27:55.709Z,24.77
2019-05-01T00:30:30.174Z,25.63
2019-05-01T00:32:54.857Z,23.67
2019-05-01T00:35:23.424Z,23.80
2019-05-01T00:37:51.890Z,22.87
2019-05-01T00:40:20.374Z,25.00
2019-05-01T00:42:48.863Z,24.27
2019-05-01T00:45:17.484Z,26.13
2019-05-01T00:47:45.958Z,24.70
2019-05-01T00:50:14.529Z,24.37
2019-05-01T00:52:43.020Z,25.07
2019-05-01T00:55:31.239Z,26.63
2019-05-01T00:58:17.752Z,24.03
2019-05-01T01:00:50.852Z,26.83
2019-05-01T01:03:19.404Z,22.77
2019-05-01T01:05:47.865Z,23.07
2019-05-01T01:08:16.868Z,26.97
2019-05-01T01:10:45.322Z,24.70
2019-05-01T01:13:13.862Z,26.07
2019-05-01T01:15:42.331Z,28.27
2019-05-01T01:18:10.806Z,24.87
2019-05-01T01:20:39.344Z,26.37
2019-05-01T01:23:07.923Z,24.13
2019-05-01T01:25:36.559Z,27.43
2019-05-01T01:28:05.043Z,26.67
2019-05-01T01:30:33.593Z,24.87
2019-05-01T01:33:02.326Z,25.70
2019-05-01T01:35:31.232Z,23.93
2019-05-01T01:37:59.759Z,28.43
2019-05-01T01:40:28.595Z,26.83
2019-05-01T01:42:59.254Z,28.03
2019-05-01T01:45:40.020Z,26.43
2019-05-01T01:48:13.340Z,27.27
2019-05-01T01:50:43.776Z,28.43
2019-05-01T01:53:15.905Z,25.47
2019-05-01T01:55:45.936Z,24.87
2019-05-01T01:58:15.043Z,25.87
2019-05-01T02:01:09.325Z,27.67
2019-05-01T02:03:40.121Z,25.90
2019-05-01T02:06:08.832Z,26.23
2019-05-01T02:08:37.371Z,28.00
2019-05-01T02:11:06.011Z,25.73
2019-05-01T02:13:34.725Z,25.97
2019-05-01T02:16:03.195Z,28.03
2019-05-01T02:18:31.828Z,26.67
2019-05-01T02:21:00.291Z,27.63
2019-05-01T02:23:28.770Z,24.00
2019-05-01T02:25:57.312Z,28.27
2019-05-01T02:28:39.701Z,24.67
2019-05-01T02:31:27.092Z,27.03
2019-05-01T02:33:48.021Z,24.93
2019-05-01T02:36:18.874Z,27.60
2019-05-01T02:38:49.663Z,27.00
2019-05-01T02:41:20.535Z,27.13
2019-05-01T02:43:51.898Z,28.47
2019-05-01T02:46:22.715Z,26.00
2019-05-01T02:49:06.749Z,28.63
2019-05-01T02:51:38.309Z,31.30
2019-05-01T02:54:08.169Z,31.17
2019-05-01T02:56:42.213Z,27.00
2019-05-01T02:59:11.678Z,27.40
2019-05-01T03:01:47.167Z,27.03
2019-05-01T03:04:11.138Z,28.70
2019-05-01T03:06:40.835Z,28.27
2019-05-01T03:09:09.513Z,25.97
2019-05-01T03:11:40.308Z,24.90
2019-05-01T03:14:11.935Z,24.33
2019-05-01T03:16:41.316Z,26.60
2019-05-01T03:19:19.293Z,26.43
2019-05-01T03:21:52.737Z,26.83
2019-05-01T03:24:22.971Z,31.40
2019-05-01T03:26:51.901Z,27.63
2019-05-01T03:29:20.899Z,28.23
2019-05-01T03:32:14.455Z,28.87
2019-05-01T03:34:19.864Z,27.67
2019-05-01T03:36:48.851Z,27.30
2019-05-01T03:39:17.871Z,29.53
2019-05-01T03:41:47.145Z,27.67
2019-05-01T03:44:16.572Z,28.67
2019-05-01T03:46:45.403Z,28.40
2019-05-01T03:49:14.538Z,25.87
2019-05-01T03:51:43.545Z,28.07
2019-05-01T03:54:12.736Z,28.67
2019-05-01T03:56:42.054Z,32.03
2019-05-01T03:59:10.770Z,25.93
2019-05-01T04:01:49.969Z,27.63
2019-05-01T04:04:20.170Z,28.47
2019-05-01T04:06:49.186Z,30.27
2019-05-01T04:09:17.736Z,28.07
2019-05-01T04:11:46.449Z,27.20
2019-05-01T04:14:15.611Z,29.63
2019-05-01T04:16:46.114Z,29.40
2019-05-01T04:19:15.828Z,30.80
2019-05-01T04:21:46.013Z,32.37
2019-05-01T04:24:15.392Z,28.17
2019-05-01T04:26:43.919Z,32.90
2019-05-01T04:29:14.133Z,29.97
2019-05-01T04:32:00.936Z,30.33
2019-05-01T04:34:33.875Z,28.47
2019-05-01T04:37:07.331Z,29.43
2019-05-01T04:39:36.354Z,28.33
2019-05-01T04:42:05.121Z,26.70
2019-05-01T04:44:33.962Z,29.43
2019-05-01T04:47:03.176Z,28.90
2019-05-01T04:49:32.054Z,27.23
2019-05-01T04:52:01.042Z,24.70
2019-05-01T04:54:29.653Z,24.20
2019-05-01T04:56:58.259Z,27.73
2019-05-01T04:59:27.254Z,28.07
2019-05-01T05:02:04.033Z,27.30
2019-05-01T05:04:33.543Z,25.20
2019-05-01T05:07:02.347Z,27.97
2019-05-01T05:09:39.654Z,28.20
2019-05-01T05:12:16.003Z,27.87
2019-05-01T05:14:54.824Z,25.53
2019-05-01T05:17:24.131Z,26.13
2019-05-01T05:19:53.309Z,27.10
2019-05-01T05:22:22.828Z,26.17
2019-05-01T05:24:52.087Z,28.43
2019-05-01T05:27:20.619Z,28.80
2019-05-01T05:29:49.423Z,26.40
2019-05-01T05:32:20.746Z,25.80
2019-05-01T05:34:51.553Z,23.40
2019-05-01T05:37:25.391Z,26.33
2019-05-01T05:39:55.451Z,27.27
2019-05-01T05:42:24.590Z,27.83
2019-05-01T05:44:53.220Z,26.20
2019-05-01T05:47:21.716Z,23.13
2019-05-01T05:49:50.306Z,23.77
2019-05-01T05:52:34.229Z,29.30
2019-05-01T05:55:06.971Z,29.27
2019-05-01T05:57:37.502Z,28.17
2019-05-01T06:00:08.661Z,27.33
2019-05-01T06:02:43.476Z,27.97
2019-05-01T06:05:32.135Z,27.00
2019-05-01T06:08:12.933Z,30.23
2019-05-01T06:11:00.164Z,31.40
2019-05-01T06:13:47.449Z,35.67
2019-05-01T06:16:27.993Z,33.03
2019-05-01T06:18:58.271Z,31.73
2019-05-01T06:21:34.731Z,30.93
2019-05-01T06:24:06.925Z,29.50
2019-05-01T06:26:39.263Z,28.07
2019-05-01T06:29:06.518Z,30.77
2019-05-01T06:31:36.613Z,34.73
2019-05-01T06:34:05.463Z,35.00
2019-05-01T06:36:34.482Z,32.97
2019-05-01T06:39:06.788Z,31.97
2019-05-01T06:41:42.665Z,30.37
2019-05-01T06:44:11.426Z,29.00
2019-05-01T06:46:50.721Z,31.57
2019-05-01T06:49:30.952Z,32.07
2019-05-01T06:52:01.877Z,29.10
2019-05-01T06:54:31.662Z,32.20
2019-05-01T06:57:02.891Z,32.77
2019-05-01T06:59:33.430Z,30.40
2019-05-01T07:02:02.783Z,30.87
2019-05-01T07:04:37.394Z,30.47
2019-05-01T07:07:06.640Z,34.23
2019-05-01T07:09:35.352Z,30.90
2019-05-01T07:12:06.283Z,34.10
2019-05-01T07:14:35.209Z,32.67
2019-05-01T07:17:04.265Z,31.30
2019-05-01T07:19:49.674Z,33.30
2019-05-01T07:22:18.485Z,34.17
2019-05-01T07:24:49.057Z,32.43
2019-05-01T07:27:18.825Z,33.47
2019-05-01T07:29:49.224Z,28.93
2019-05-01T07:32:17.819Z,31.57
2019-05-01T07:34:48.892Z,30.67
2019-05-01T07:37:20.891Z,30.23
2019-05-01T07:39:49.904Z,30.63
2019-05-01T07:42:31.687Z,29.83
2019-05-01T07:45:22.585Z,32.27
2019-05-01T07:47:53.055Z,32.23
2019-05-01T07:50:23.865Z,30.87
2019-05-01T07:52:53.999Z,31.13
2019-05-01T07:55:38.453Z,34.07
2019-05-01T07:58:10.505Z,29.27
2019-05-01T08:00:48.950Z,31.43
2019-05-01T08:03:17.586Z,30.20
2019-05-01T08:05:46.770Z,30.17
2019-05-01T08:08:15.730Z,26.30
2019-05-01T08:10:44.322Z,28.77
2019-05-01T08:13:12.865Z,29.63
2019-05-01T08:15:41.337Z,30.00
2019-05-01T08:21:04.597Z,26.57
2019-05-01T08:23:33.071Z,30.17
2019-05-01T08:26:03.854Z,30.53
2019-05-01T08:28:49.539Z,27.93
2019-05-01T08:31:29.085Z,28.43
2019-05-01T08:33:59.265Z,26.73
2019-05-01T08:36:27.747Z,26.00
2019-05-01T08:38:56.222Z,26.37
2019-05-01T08:41:26.973Z,23.33
2019-05-01T08:43:55.941Z,23.50
2019-05-01T08:46:46.792Z,25.10
2019-05-01T08:49:19.949Z,24.77
2019-05-01T08:51:48.497Z,26.93
2019-05-01T08:54:17.008Z,26.43
2019-05-01T08:56:45.741Z,28.17
2019-05-01T08:59:14.207Z,22.57
2019-05-01T09:01:45.855Z,24.97
2019-05-01T09:04:13.555Z,25.93
2019-05-01T09:06:43.786Z,25.10
2019-05-01T09:09:12.331Z,25.27
2019-05-01T09:11:42.100Z,23.73
2019-05-01T09:14:10.563Z,23.87
2019-05-01T09:16:39.017Z,24.60
2019-05-01T09:19:07.765Z,23.17
2019-05-01T09:21:37.932Z,21.43
2019-05-01T09:24:06.579Z,21.77
2019-05-01T09:26:45.486Z,23.47
2019-05-01T09:29:23.715Z,20.57
2019-05-01T09:31:52.759Z,24.13
2019-05-01T09:34:21.319Z,21.43
2019-05-01T09:36:49.838Z,26.67
2019-05-01T09:39:18.867Z,21.97
2019-05-01T09:41:48.785Z,21.77
2019-05-01T09:44:17.543Z,21.73
2019-05-01T09:46:46.091Z,21.87
2019-05-01T09:49:18.340Z,20.20
2019-05-01T09:51:54.338Z,19.43
2019-05-01T09:54:42.903Z,21.03
2019-05-01T09:57:11.107Z,19.73
2019-05-01T09:59:39.639Z,20.77
2019-05-01T10:02:09.133Z,21.00
2019-05-01T10:04:37.883Z,19.13
2019-05-01T10:07:07.674Z,21.50
2019-05-01T10:09:36.151Z,18.73
2019-05-01T10:12:05.087Z,18.43
2019-05-01T10:14:36.192Z,16.93
2019-05-01T10:17:03.806Z,18.60
2019-05-01T10:19:32.271Z,16.70
2019-05-01T10:22:02.338Z,19.07
2019-05-01T10:24:32.158Z,18.87
2019-05-01T10:27:02.878Z,21.23
2019-05-01T10:29:47.935Z,18.60
2019-05-01T10:32:21.713Z,22.17
2019-05-01T10:35:01.967Z,16.30
2019-05-01T10:37:33.714Z,16.90
2019-05-01T10:40:00.616Z,14.57
2019-05-01T10:42:29.390Z,16.87
2019-05-01T10:44:58.105Z,19.20
2019-05-01T10:47:26.575Z,19.63
2019-05-01T10:49:55.067Z,19.47
2019-05-01T10:52:23.795Z,17.87
2019-05-01T10:54:52.346Z,15.97
2019-05-01T10:57:20.884Z,16.90
2019-05-01T10:59:49.372Z,13.93
2019-05-01T11:02:19.119Z,17.73
2019-05-01T11:04:47.599Z,17.50
2019-05-01T11:07:16.089Z,16.57
2019-05-01T11:09:44.555Z,14.07
2019-05-01T11:12:13.425Z,15.27
2019-05-01T11:14:42.135Z,16.57
2019-05-01T11:17:10.604Z,13.43
2019-05-01T11:19:39.072Z,17.10
2019-05-01T11:22:07.865Z,15.90
2019-05-01T11:24:36.435Z,18.87
2019-05-01T11:27:05.125Z,14.27
2019-05-01T11:29:33.745Z,13.67
2019-05-01T11:32:03.849Z,16.13
2019-05-01T11:34:34.038Z,14.07
2019-05-01T11:37:04.141Z,16.83
2019-05-01T11:39:53.118Z,16.40
2019-05-01T11:42:21.569Z,14.77
2019-05-01T11:44:50.133Z,14.53
2019-05-01T11:47:18.695Z,13.93
2019-05-01T11:49:47.174Z,18.00
2019-05-01T11:52:15.621Z,14.57
2019-05-01T11:54:44.121Z,12.80
2019-05-01T11:57:12.749Z,13.93
2019-05-01T11:59:41.307Z,12.50
2019-05-01T12:02:09.783Z,15.60
2019-05-01T12:04:38.253Z,16.57
2019-05-01T12:07:06.795Z,14.57
2019-05-01T12:09:35.249Z,18.10
2019-05-01T12:12:08.346Z,19.70
2019-05-01T12:14:36.821Z,14.57
2019-05-01T12:17:07.007Z,15.77
2019-05-01T12:19:35.471Z,14.57
2019-05-01T12:22:04.004Z,14.53
2019-05-01T12:24:32.483Z,13.00
2019-05-01T12:27:01.261Z,11.27
2019-05-01T12:29:29.807Z,12.87
2019-05-01T12:31:58.271Z,14.23
2019-05-01T12:34:26.769Z,14.87
2019-05-01T12:37:13.413Z,12.23
2019-05-01T12:39:41.922Z,13.60
2019-05-01T12:42:10.379Z,14.37
2019-05-01T12:44:38.839Z,13.03
2019-05-01T12:47:08.967Z,12.23
2019-05-01T12:49:37.452Z,14.10
2019-05-01T12:52:20.097Z,13.77
2019-05-01T12:54:51.940Z,13.33
2019-05-01T12:57:20.394Z,13.17
2019-05-01T12:59:48.885Z,13.80
2019-05-01T13:02:17.362Z,15.33
2019-05-01T13:04:45.891Z,14.73
2019-05-01T13:07:14.454Z,14.03
2019-05-01T13:09:42.925Z,12.80
2019-05-01T13:12:11.659Z,16.17
2019-05-01T13:14:40.126Z,15.43
2019-05-01T13:17:08.600Z,14.43
2019-05-01T13:19:37.087Z,15.80
2019-05-01T13:22:05.661Z,11.33
2019-05-01T13:24:35.773Z,12.30
2019-05-01T13:27:06.345Z,13.27
2019-05-01T13:29:36.434Z,13.30
2019-05-01T13:32:18.775Z,13.40
2019-05-01T13:34:47.305Z,11.77
2019-05-01T13:37:15.767Z,12.27
2019-05-01T13:39:44.262Z,12.20
2019-05-01T13:42:12.753Z,10.57
2019-05-01T13:44:41.304Z,10.67
2019-05-01T13:47:09.823Z,12.43
2019-05-01T13:49:38.308Z,10.63
2019-05-01T13:52:06.825Z,10.40
2019-05-01T13:54:35.391Z,10.73
2019-05-01T13:57:03.855Z,11.27
2019-05-01T13:59:32.641Z,10.77
2019-05-01T14:02:01.518Z,13.23
2019-05-01T14:04:30.456Z,11.67
2019-05-01T14:06:59.012Z,15.17
2019-05-01T14:09:29.126Z,12.33
2019-05-01T14:11:58.008Z,13.77
2019-05-01T14:14:26.474Z,13.00
2019-05-01T14:16:54.961Z,12.60
2019-05-01T14:19:23.437Z,13.23
2019-05-01T14:21:59.323Z,12.30
2019-05-01T14:24:32.394Z,12.83
2019-05-01T14:27:00.885Z,10.60
2019-05-01T14:29:29.339Z,11.97
2019-05-01T14:31:57.809Z,13.37
2019-05-01T14:34:26.285Z,13.10
2019-05-01T14:36:54.762Z,11.43
2019-05-01T14:39:23.259Z,12.93
2019-05-01T14:41:51.971Z,12.73
2019-05-01T14:44:20.445Z,11.83
2019-05-01T14:46:48.921Z,10.67
2019-05-01T14:49:17.546Z,11.93
2019-05-01T14:51:46.033Z,12.13
2019-05-01T14:54:14.575Z,13.23
2019-05-01T14:56:43.426Z,10.03
2019-05-01T14:59:12.165Z,10.40
2019-05-01T15:01:40.787Z,11.40
2019-05-01T15:04:09.247Z,12.43
2019-05-01T15:06:37.851Z,10.77
2019-05-01T15:09:08.260Z,10.33
2019-05-01T15:11:37.592Z,10.90
2019-05-01T15:14:16.992Z,9.63
2019-05-01T15:16:52.894Z,10.70
2019-05-01T15:19:22.995Z,10.70
2019-05-01T15:21:51.760Z,12.03
2019-05-01T15:24:20.288Z,13.63
2019-05-01T15:26:48.758Z,12.00
2019-05-01T15:29:17.375Z,9.13
2019-05-01T15:31:45.835Z,11.17
2019-05-01T15:34:14.390Z,10.53
2019-05-01T15:36:42.851Z,13.23
2019-05-01T15:39:12.975Z,11.93
2019-05-01T15:41:59.450Z,10.73
2019-05-01T15:44:35.574Z,10.27
2019-05-01T15:47:04.728Z,9.87
2019-05-01T15:49:34.058Z,8.63
2019-05-01T15:52:02.654Z,10.37
2019-05-01T15:54:31.134Z,8.90
2019-05-01T15:56:59.981Z,11.37
2019-05-01T15:59:28.525Z,10.07
2019-05-01T16:01:57.003Z,11.53
2019-05-01T16:04:25.477Z,16.90
2019-05-01T16:06:54.031Z,16.67
2019-05-01T16:09:22.495Z,12.97
2019-05-01T16:12:11.013Z,12.57
2019-05-01T16:14:39.711Z,14.13
2019-05-01T16:17:08.209Z,12.57
2019-05-01T16:19:36.654Z,11.63
2019-05-01T16:22:05.286Z,12.97
2019-05-01T16:24:33.809Z,13.60
2019-05-01T16:27:02.275Z,13.07
2019-05-01T16:29:30.758Z,13.60
2019-05-01T16:31:59.720Z,12.73
2019-05-01T16:34:28.440Z,12.00
2019-05-01T16:36:56.917Z,11.37
2019-05-01T16:39:43.598Z,12.73
2019-05-01T16:42:12.505Z,11.63
2019-05-01T16:44:40.983Z,12.83
2019-05-01T16:47:09.871Z,12.63
2019-05-01T16:49:38.367Z,11.17
2019-05-01T16:52:07.153Z,11.90
2019-05-01T16:54:36.049Z,12.97
2019-05-01T16:57:06.635Z,12.93
2019-05-01T16:59:35.091Z,13.40
2019-05-01T17:02:21.257Z,10.10
2019-05-01T17:04:54.082Z,13.07
2019-05-01T17:07:33.101Z,11.13
2019-05-01T17:10:12.465Z,9.67
2019-05-01T17:12:42.741Z,10.10
2019-05-01T17:15:11.801Z,11.67
2019-05-01T17:17:40.698Z,11.53
2019-05-01T17:20:09.345Z,11.47
2019-05-01T17:22:37.946Z,11.43
2019-05-01T17:25:07.853Z,12.33
2019-05-01T17:27:36.326Z,10.27
2019-05-01T17:30:14.235Z,12.83
2019-05-01T17:32:44.252Z,11.00
2019-05-01T17:35:13.355Z,10.73
2019-05-01T17:37:41.859Z,10.30
2019-05-01T17:40:11.247Z,10.33
2019-05-01T17:42:39.715Z,10.63
2019-05-01T17:45:08.270Z,9.97
2019-05-01T17:47:36.989Z,8.27
2019-05-01T17:50:06.150Z,7.67
2019-05-01T17:52:34.623Z,10.67
2019-05-01T17:55:03.864Z,10.27
2019-05-01T17:57:33.945Z,7.87
2019-05-01T18:00:04.397Z,10.00
2019-05-01T18:02:40.556Z,9.43
2019-05-01T18:05:10.838Z,9.33
2019-05-01T18:07:39.440Z,9.10
2019-05-01T18:10:08.173Z,9.70
2019-05-01T18:12:36.631Z,7.37
2019-05-01T18:15:16.440Z,8.93
2019-05-01T18:17:44.994Z,14.07
2019-05-01T18:20:13.805Z,11.63
2019-05-01T18:22:49.683Z,11.23
2019-05-01T18:25:22.495Z,11.00
2019-05-01T18:27:55.958Z,11.27
2019-05-01T18:30:26.533Z,10.97
2019-05-01T18:32:55.013Z,16.43
2019-05-01T18:35:23.491Z,10.30
2019-05-01T18:38:06.133Z,13.00
2019-05-01T18:40:52.245Z,13.00
2019-05-01T18:43:20.811Z,11.53
2019-05-01T18:45:51.772Z,11.07
2019-05-01T18:48:21.419Z,15.10
2019-05-01T18:50:55.022Z,13.97
2019-05-01T18:53:20.945Z,15.43
2019-05-01T18:55:49.523Z,13.43
2019-05-01T18:58:18.026Z,13.33
2019-05-01T19:00:46.699Z,12.60
2019-05-01T19:03:15.253Z,12.03
2019-05-01T19:05:47.043Z,13.00
2019-05-01T19:08:14.063Z,12.20
2019-05-01T19:10:42.552Z,10.23
2019-05-01T19:13:11.301Z,12.90
2019-05-01T19:15:39.831Z,14.10
2019-05-01T19:18:08.372Z,15.83
2019-05-01T19:20:36.931Z,15.20
2019-05-01T19:23:05.800Z,11.50
2019-05-01T19:25:34.292Z,12.17
2019-05-01T19:28:04.433Z,11.37
2019-05-01T19:30:33.179Z,11.93
2019-05-01T19:33:01.766Z,12.40
2019-05-01T19:35:33.914Z,11.33
2019-05-01T19:38:00.558Z,13.03
2019-05-01T19:40:30.777Z,9.83
2019-05-01T19:43:00.200Z,12.83
2019-05-01T19:45:28.865Z,11.13
2019-05-01T19:47:57.410Z,11.40
2019-05-01T19:50:25.937Z,12.77
2019-05-01T19:52:54.462Z,13.57
2019-05-01T19:55:23.023Z,11.13
2019-05-01T19:57:51.513Z,12.03
2019-05-01T20:00:40.326Z,11.53
2019-05-01T20:03:09.243Z,10.10
2019-05-01T20:05:37.762Z,12.20
2019-05-01T20:08:06.317Z,11.40
2019-05-01T20:10:34.878Z,11.63
2019-05-01T20:13:07.106Z,10.43
2019-05-01T20:15:33.882Z,10.33
2019-05-01T20:18:02.428Z,11.33
2019-05-01T20:20:30.911Z,10.87
2019-05-01T20:22:59.378Z,12.43
2019-05-01T20:25:27.850Z,12.07
2019-05-01T20:27:57.424Z,11.37
2019-05-01T20:30:26.164Z,10.87
2019-05-01T20:32:58.249Z,13.30
2019-05-01T20:35:28.593Z,11.77
2019-05-01T20:37:55.091Z,10.50
2019-05-01T20:40:23.588Z,12.37
2019-05-01T20:42:52.071Z,14.57
2019-05-01T20:45:20.831Z,11.20
2019-05-01T20:47:49.291Z,10.27
2019-05-01T20:50:17.981Z,13.27
2019-05-01T20:52:46.487Z,10.10
2019-05-01T20:55:15.129Z,11.40
2019-05-01T20:57:48.065Z,12.50
2019-05-01T21:00:18.644Z,8.90
2019-05-01T21:02:47.203Z,13.60
2019-05-01T21:05:20.075Z,11.73
2019-05-01T21:07:52.068Z,10.13
2019-05-01T21:10:25.036Z,9.63
2019-05-01T21:12:52.229Z,10.37
2019-05-01T21:15:24.820Z,11.57
2019-05-01T21:17:51.181Z,11.37
2019-05-01T21:20:19.652Z,11.47
2019-05-01T21:22:48.151Z,14.10
2019-05-01T21:25:16.606Z,12.60
2019-05-01T21:27:45.083Z,9.93
2019-05-01T21:30:13.964Z,12.53
2019-05-01T21:32:44.376Z,11.53
2019-05-01T21:35:13.706Z,13.63
2019-05-01T21:37:42.451Z,10.67
2019-05-01T21:40:12.862Z,12.60
2019-05-01T21:42:42.900Z,11.40
2019-05-01T21:45:12.809Z,10.63
2019-05-01T21:47:42.673Z,10.10
2019-05-01T21:50:13.174Z,10.83
2019-05-01T21:52:43.702Z,11.77
2019-05-01T21:55:12.360Z,11.87
2019-05-01T21:57:40.890Z,10.77
2019-05-01T22:00:10.113Z,12.00
2019-05-01T22:02:41.648Z,14.33
2019-05-01T22:05:09.111Z,12.57
2019-05-01T22:07:37.557Z,11.57
2019-05-01T22:10:07.156Z,9.93
2019-05-01T22:12:35.635Z,10.20
2019-05-01T22:15:11.117Z,12.00
2019-05-01T22:17:46.324Z,12.37
2019-05-01T22:20:16.586Z,10.27
2019-05-01T22:22:49.358Z,11.50
2019-05-01T22:25:19.510Z,12.97
2019-05-01T22:27:49.691Z,15.37
2019-05-01T22:30:28.911Z,10.87
2019-05-01T22:32:59.191Z,10.73
2019-05-01T22:35:29.367Z,14.77
2019-05-01T22:37:58.095Z,11.37
2019-05-01T22:40:34.493Z,14.87
2019-05-01T22:43:02.975Z,14.07
2019-05-01T22:45:31.503Z,13.97
2019-05-01T22:48:00.016Z,12.10
2019-05-01T22:50:28.547Z,14.33
2019-05-01T22:52:57.336Z,11.10
2019-05-01T22:55:26.740Z,11.63
2019-05-01T22:57:55.631Z,13.90
2019-05-01T23:00:28.307Z,15.60
2019-05-01T23:03:00.111Z,11.70
2019-05-01T23:05:29.484Z,15.57
2019-05-01T23:07:58.041Z,13.33
2019-05-01T23:10:27.366Z,14.27
2019-05-01T23:12:55.845Z,14.50
2019-05-01T23:15:25.925Z,14.57
2019-05-01T23:17:54.493Z,14.53
2019-05-01T23:20:23.426Z,13.03
2019-05-01T23:22:51.917Z,14.27
2019-05-01T23:25:20.382Z,15.57
2019-05-01T23:27:48.915Z,13.30
2019-05-01T23:30:20.097Z,13.73
2019-05-01T23:32:48.560Z,14.67
2019-05-01T23:35:17.095Z,13.33
2019-05-01T23:37:45.575Z,14.27
2019-05-01T23:40:15.528Z,13.07
2019-05-01T23:42:52.333Z,15.80
2019-05-01T23:45:15.694Z,14.03
2019-05-01T23:47:44.473Z,18.47
2019-05-01T23:50:13.398Z,13.60
2019-05-01T23:52:41.870Z,16.33
2019-05-01T23:55:11.090Z,13.90
2019-05-01T23:57:39.606Z,14.17
